This is the latest recevied weather packets stored in our database for station/object IW3HBX-3. If no packets are shown the sender has not sent any weather packets the latest 10 day(s).
| Time | Temp. | Humidity | Pressure | Rain* | Wind** | Luminosity | Snow |
|---|---|---|---|---|---|---|---|
| 1777714501 | 22.78° C | 38% | 1025.6 hPa | 0 mm | - | 729 W/m² | - |
| 1777714202 | 21.67° C | 40% | 1025.6 hPa | 0 mm | - | 722 W/m² | - |
| 1777713902 | 21.67° C | 38% | 1025.7 hPa | 0 mm | - | 718 W/m² | - |
| 1777713602 | 21.11° C | 40% | 1025.7 hPa | 0 mm | - | 707 W/m² | - |
| 1777713302 | 21.11° C | 39% | 1025.7 hPa | 0 mm | - | 695 W/m² | - |
| 1777713003 | 21.11° C | 39% | 1025.7 hPa | 0 mm | - | 692 W/m² | - |
| 1777712703 | 20.56° C | 40% | 1025.8 hPa | 0 mm | - | 683 W/m² | - |
| 1777712403 | 22.22° C | 38% | 1025.8 hPa | 0 mm | - | 677 W/m² | - |
| 1777712103 | 21.67° C | 40% | 1025.8 hPa | 0 mm | - | 665 W/m² | - |
| 1777711804 | 21.67° C | 41% | 1025.9 hPa | 0 mm | - | 655 W/m² | - |
| 1777711504 | 21.11° C | 40% | 1025.9 hPa | 0 mm | - | 650 W/m² | - |
| 1777711204 | 20.56° C | 41% | 1025.9 hPa | 0 mm | - | 635 W/m² | - |
| 1777710904 | 21.11° C | 41% | 1025.9 hPa | 0 mm | - | 623 W/m² | - |
| 1777710305 | 20.56° C | 41% | 1026 hPa | 0 mm | - | 592 W/m² | - |
| 1777710005 | 21.11° C | 40% | 1026.1 hPa | 0 mm | - | 582 W/m² | - |
| 1777709705 | 20.56° C | 42% | 1026.1 hPa | 0 mm | - | 567 W/m² | - |
| 1777709406 | 21.11° C | 42% | 1026.1 hPa | 0 mm | - | 552 W/m² | - |
| 1777709106 | 20.56° C | 42% | 1026.1 hPa | 0 mm | - | 539 W/m² | - |
| 1777708507 | 19.44° C | 45% | 1026.3 hPa | 0 mm | - | 508 W/m² | - |
| 1777708207 | 18.89° C | 45% | 1026.3 hPa | 0 mm | - | 491 W/m² | - |
| 1777707907 | 18.89° C | 45% | 1026.3 hPa | 0 mm | - | 476 W/m² | - |
| 1777707607 | 18.89° C | 46% | 1026.3 hPa | 0 mm | - | 461 W/m² | - |
| 1777707308 | 18.89° C | 44% | 1026.3 hPa | 0 mm | - | 445 W/m² | - |
| 1777706708 | 18.33° C | 48% | 1026.4 hPa | 0 mm | - | 417 W/m² | - |
| 1777706408 | 18.33° C | 49% | 1026.4 hPa | 0 mm | - | 401 W/m² | - |
* Rain latest hour (hover to see other rain measurements)
** Current wind speed in m/s (hover to see current wind gust speed)